createdAt,value
2022-12-08T00:02:13.791Z,100403.00
2022-12-08T00:04:59.075Z,100400.41
2022-12-08T00:08:03.887Z,100399.56
2022-12-08T00:13:16.794Z,100389.19
2022-12-08T00:15:43.246Z,100379.72
2022-12-08T00:18:09.679Z,100377.97
2022-12-08T00:20:36.082Z,100381.44
2022-12-08T00:23:04.168Z,100381.44
2022-12-08T00:25:31.582Z,100368.50
2022-12-08T00:27:58.014Z,100371.94
2022-12-08T00:30:24.386Z,100371.94
2022-12-08T00:32:50.779Z,100369.34
2022-12-08T00:35:17.244Z,100361.59
2022-12-08T00:37:43.684Z,100368.50
2022-12-08T00:40:10.466Z,100371.91
2022-12-08T00:42:36.875Z,100361.56
2022-12-08T00:45:03.466Z,100357.25
2022-12-08T00:47:29.848Z,100351.19
2022-12-08T00:49:57.154Z,100353.78
2022-12-08T00:52:23.567Z,100352.09
2022-12-08T00:54:50.005Z,100349.50
2022-12-08T00:57:16.398Z,100347.78
2022-12-08T00:59:42.865Z,100349.50
2022-12-08T01:02:09.266Z,100342.59
2022-12-08T01:04:35.712Z,100343.44
2022-12-08T01:07:02.130Z,100336.56
2022-12-08T01:09:28.727Z,100336.56
2022-12-08T01:11:55.246Z,100335.69
2022-12-08T01:14:21.742Z,100337.44
2022-12-08T01:16:48.225Z,100343.44
2022-12-08T01:19:17.034Z,100346.06
2022-12-08T01:21:44.567Z,100343.44
2022-12-08T01:24:17.420Z,100339.13
2022-12-08T01:26:43.980Z,100339.13
2022-12-08T01:29:11.476Z,100340.84
2022-12-08T01:31:38.214Z,100347.75
2022-12-08T01:34:05.468Z,100338.25
2022-12-08T01:36:33.924Z,100345.16
2022-12-08T01:39:01.745Z,100339.97
2022-12-08T01:41:31.208Z,100333.97
2022-12-08T01:44:23.756Z,100340.88
2022-12-08T01:46:53.414Z,100331.38
2022-12-08T01:49:24.534Z,100334.84
2022-12-08T01:52:25.047Z,100323.59
2022-12-08T01:55:20.204Z,100333.09
2022-12-08T01:57:50.802Z,100327.94
2022-12-08T02:00:20.539Z,100325.34
2022-12-08T02:02:54.275Z,100320.16
2022-12-08T02:05:24.501Z,100325.31
2022-12-08T02:07:52.102Z,100322.75
2022-12-08T02:10:21.460Z,100321.03
2022-12-08T02:12:50.542Z,100315.84
2022-12-08T02:15:18.822Z,100312.41
2022-12-08T02:18:04.921Z,100308.09
2022-12-08T02:20:45.546Z,100308.94
2022-12-08T02:23:37.136Z,100307.22
2022-12-08T02:26:34.545Z,100297.72
2022-12-08T02:29:46.160Z,100296.00
2022-12-08T02:32:15.260Z,100297.72
2022-12-08T02:34:53.966Z,100288.22
2022-12-08T02:37:31.585Z,100289.09
2022-12-08T02:40:05.344Z,100286.50
2022-12-08T02:42:52.229Z,100283.91
2022-12-08T02:45:37.216Z,100273.56
2022-12-08T02:48:03.777Z,100269.25
2022-12-08T02:50:30.259Z,100261.47
2022-12-08T02:52:56.753Z,100263.19
2022-12-08T02:55:44.544Z,100266.66
2022-12-08T02:58:36.470Z,100260.63
2022-12-08T03:01:16.505Z,100268.41
2022-12-08T03:04:04.389Z,100259.75
2022-12-08T03:06:40.347Z,100250.25
2022-12-08T03:09:29.748Z,100247.66
2022-12-08T03:12:04.805Z,100244.25
2022-12-08T03:14:33.675Z,100242.50
2022-12-08T03:17:00.822Z,100239.94
2022-12-08T03:19:32.514Z,100239.91
2022-12-08T03:22:03.434Z,100233.88
2022-12-08T03:24:39.131Z,100230.41
2022-12-08T03:27:19.028Z,100224.41
2022-12-08T03:29:51.031Z,100226.09
2022-12-08T03:32:34.402Z,100220.91
2022-12-08T03:35:06.498Z,100210.56
2022-12-08T03:37:35.997Z,100217.47
2022-12-08T03:40:05.442Z,100216.59
2022-12-08T03:42:32.075Z,100216.59
2022-12-08T03:44:58.505Z,100209.69
2022-12-08T03:47:25.062Z,100208.00
2022-12-08T03:49:51.469Z,100197.63
2022-12-08T03:52:17.894Z,100192.47
2022-12-08T03:54:44.253Z,100195.03
2022-12-08T03:57:10.687Z,100190.72
2022-12-08T03:59:37.132Z,100191.59
2022-12-08T04:02:03.640Z,100187.25
2022-12-08T04:04:30.125Z,100179.50
2022-12-08T04:06:56.941Z,100175.19
2022-12-08T04:09:23.567Z,100179.50
2022-12-08T04:11:50.048Z,100169.16
2022-12-08T04:14:16.522Z,100170.00
2022-12-08T04:16:42.984Z,100170.00
2022-12-08T04:19:09.497Z,100166.56
2022-12-08T04:21:35.962Z,100166.56
2022-12-08T04:24:02.600Z,100169.16
2022-12-08T04:26:29.243Z,100153.59
2022-12-08T04:28:55.654Z,100158.78
2022-12-08T04:31:22.149Z,100150.16
2022-12-08T04:33:48.756Z,100142.41
2022-12-08T04:36:15.221Z,100152.75
2022-12-08T04:38:41.655Z,100157.06
2022-12-08T04:41:08.102Z,100147.56
2022-12-08T04:43:35.621Z,100148.44
2022-12-08T04:46:02.136Z,100142.41
2022-12-08T04:48:28.756Z,100148.44
2022-12-08T04:50:55.204Z,100145.00
2022-12-08T04:53:21.674Z,100138.97
2022-12-08T04:55:51.262Z,100140.69
2022-12-08T04:58:19.275Z,100150.19
2022-12-08T05:00:46.455Z,100143.28
2022-12-08T05:03:13.921Z,100138.09
2022-12-08T05:05:42.178Z,100145.84
2022-12-08T05:08:09.889Z,100133.78
2022-12-08T05:10:36.654Z,100133.78
2022-12-08T05:13:03.102Z,100139.81
2022-12-08T05:15:29.535Z,100138.09
2022-12-08T05:17:56.023Z,100132.06
2022-12-08T05:20:22.584Z,100138.09
2022-12-08T05:22:49.035Z,100136.38
2022-12-08T05:25:15.518Z,100128.59
2022-12-08T05:27:43.153Z,100132.06
2022-12-08T05:30:09.812Z,100130.34
2022-12-08T05:32:36.290Z,100134.63
2022-12-08T05:35:02.881Z,100129.47
2022-12-08T05:37:29.332Z,100134.63
2022-12-08T05:39:55.747Z,100124.28
2022-12-08T05:42:24.907Z,100122.56
2022-12-08T05:44:51.961Z,100115.66
2022-12-08T05:47:18.438Z,100119.97
2022-12-08T05:49:44.992Z,100116.53
2022-12-08T05:52:11.560Z,100113.94
2022-12-08T05:54:38.215Z,100110.47
2022-12-08T05:57:04.651Z,100112.19
2022-12-08T05:59:31.054Z,100106.16
2022-12-08T06:01:57.534Z,100107.00
2022-12-08T06:04:23.998Z,100111.34
2022-12-08T06:06:50.545Z,100103.56
2022-12-08T06:09:17.000Z,100103.56
2022-12-08T06:11:43.457Z,100099.25
2022-12-08T06:14:11.409Z,100105.28
2022-12-08T06:16:37.851Z,100100.97
2022-12-08T06:19:04.392Z,100093.22
2022-12-08T06:21:30.853Z,100100.97
2022-12-08T06:23:57.349Z,100098.41
2022-12-08T06:26:23.807Z,100095.81
2022-12-08T06:28:50.438Z,100099.25
2022-12-08T06:31:24.919Z,100096.69
2022-12-08T06:33:52.265Z,100105.31
2022-12-08T06:36:21.141Z,100101.84
2022-12-08T06:38:47.940Z,100105.31
2022-12-08T06:41:14.965Z,100096.69
2022-12-08T06:43:41.712Z,100101.00
2022-12-08T06:46:10.887Z,100101.88
2022-12-08T06:48:37.637Z,100098.41
2022-12-08T06:51:25.479Z,100105.31
2022-12-08T06:53:51.906Z,100102.72
2022-12-08T06:56:20.018Z,100101.00
2022-12-08T06:58:52.115Z,100096.69
2022-12-08T07:01:19.516Z,100102.72
2022-12-08T07:03:47.286Z,100104.47
2022-12-08T07:06:16.634Z,100107.91
2022-12-08T07:08:43.149Z,100111.38
2022-12-08T07:11:14.109Z,100119.13
2022-12-08T07:13:44.341Z,100120.81
2022-12-08T07:16:12.223Z,100122.56
2022-12-08T07:18:39.322Z,100131.19
2022-12-08T07:21:07.793Z,100124.28
2022-12-08T07:23:35.226Z,100127.72
2022-12-08T07:26:03.695Z,100125.16
2022-12-08T07:28:32.716Z,100131.19
2022-12-08T07:30:59.893Z,100126.88
2022-12-08T07:33:27.071Z,100122.56
2022-12-08T07:35:55.078Z,100123.44
2022-12-08T07:38:21.525Z,100124.28
2022-12-08T07:40:48.003Z,100120.81
2022-12-08T07:43:14.455Z,100118.25
2022-12-08T07:45:41.433Z,100117.41
2022-12-08T07:48:07.940Z,100118.25
2022-12-08T07:50:34.671Z,100122.56
2022-12-08T07:53:01.154Z,100126.03
2022-12-08T07:55:27.582Z,100123.44
2022-12-08T07:57:54.017Z,100123.44
2022-12-08T08:00:21.047Z,100121.69
2022-12-08T08:02:48.629Z,100123.44
2022-12-08T08:05:15.167Z,100123.44
2022-12-08T08:07:43.614Z,100115.66
2022-12-08T08:10:11.341Z,100113.94
2022-12-08T08:12:38.411Z,100125.16
2022-12-08T08:15:07.914Z,100126.00
2022-12-08T08:17:35.737Z,100128.59
2022-12-08T08:20:03.910Z,100128.59
2022-12-08T08:22:30.505Z,100123.41
2022-12-08T08:24:56.914Z,100127.75
2022-12-08T08:27:23.474Z,100132.03
2022-12-08T08:29:49.921Z,100133.78
2022-12-08T08:32:16.446Z,100130.31
2022-12-08T08:34:42.914Z,100139.78
2022-12-08T08:37:09.523Z,100138.06
2022-12-08T08:39:36.219Z,100136.34
2022-12-08T08:42:02.694Z,100128.59
2022-12-08T08:44:29.131Z,100140.63
2022-12-08T08:46:55.625Z,100130.31
2022-12-08T08:49:22.126Z,100137.22
2022-12-08T08:51:48.602Z,100137.22
2022-12-08T08:54:15.318Z,100137.22
2022-12-08T08:56:41.791Z,100135.50
2022-12-08T08:59:09.477Z,100138.94
2022-12-08T09:01:35.959Z,100120.81
2022-12-08T09:04:02.703Z,100119.97
2022-12-08T09:06:29.268Z,100118.22
2022-12-08T09:08:55.996Z,100126.84
2022-12-08T09:11:25.930Z,100129.47
2022-12-08T09:13:53.966Z,100125.16
2022-12-08T09:16:21.165Z,100126.88
2022-12-08T09:18:50.977Z,100120.00
2022-12-08T09:21:22.596Z,100119.13
2022-12-08T09:23:50.712Z,100126.00
2022-12-08T09:26:17.347Z,100128.59
2022-12-08T09:28:46.485Z,100137.22
2022-12-08T09:31:20.543Z,100130.31
2022-12-08T09:33:47.570Z,100132.06
2022-12-08T09:36:14.455Z,100125.16
2022-12-08T09:38:41.390Z,100125.16
2022-12-08T09:41:17.400Z,100126.88
2022-12-08T09:44:18.358Z,100133.78
2022-12-08T09:46:48.685Z,100121.72
2022-12-08T09:49:18.463Z,100126.88
2022-12-08T09:51:46.082Z,100124.28
2022-12-08T09:54:26.314Z,100121.69
2022-12-08T09:56:57.068Z,100122.56
2022-12-08T09:59:32.647Z,100116.53
2022-12-08T10:02:01.352Z,100117.38
2022-12-08T10:04:35.185Z,100114.78
2022-12-08T10:07:23.567Z,100115.66
2022-12-08T10:10:11.796Z,100114.81
2022-12-08T10:13:15.924Z,100119.13
2022-12-08T10:15:46.967Z,100115.66
2022-12-08T10:18:22.831Z,100108.75
2022-12-08T10:20:51.322Z,100109.63
2022-12-08T10:23:25.103Z,100100.13
2022-12-08T10:26:01.729Z,100110.50
2022-12-08T10:28:28.412Z,100094.97
2022-12-08T10:30:55.199Z,100107.91
2022-12-08T10:33:23.715Z,100101.88
2022-12-08T10:35:56.204Z,100101.88
2022-12-08T10:38:36.371Z,100092.41
2022-12-08T10:41:11.803Z,100098.41
2022-12-08T10:43:46.807Z,100092.38
2022-12-08T10:46:21.589Z,100093.25
2022-12-08T10:48:56.863Z,100083.75
2022-12-08T10:51:37.584Z,100084.63
2022-12-08T10:54:06.109Z,100085.50
2022-12-08T10:56:33.407Z,100085.47
2022-12-08T10:59:16.892Z,100088.91
2022-12-08T11:01:48.136Z,100079.44
2022-12-08T11:04:20.976Z,100081.16
2022-12-08T11:06:49.355Z,100075.13
2022-12-08T11:09:15.745Z,100077.72
2022-12-08T11:11:48.275Z,100071.69
2022-12-08T11:14:33.187Z,100071.66
2022-12-08T11:17:09.554Z,100075.13
2022-12-08T11:19:41.066Z,100076.84
2022-12-08T11:22:27.123Z,100063.91
2022-12-08T11:25:21.467Z,100058.72
2022-12-08T11:27:49.762Z,100049.25
2022-12-08T11:30:37.192Z,100054.41
2022-12-08T11:33:16.323Z,100049.22
2022-12-08T11:35:45.440Z,100047.50
2022-12-08T11:38:22.398Z,100051.81
2022-12-08T11:41:14.234Z,100048.38
2022-12-08T11:44:05.221Z,100046.66
2022-12-08T11:46:44.202Z,100046.63
2022-12-08T11:49:13.256Z,100036.31
2022-12-08T11:51:39.678Z,100049.22
2022-12-08T11:54:11.082Z,100045.78
2022-12-08T11:56:42.610Z,100036.28
2022-12-08T11:59:21.141Z,100038.00
2022-12-08T12:01:47.822Z,100039.72
2022-12-08T12:04:29.601Z,100036.25
2022-12-08T12:07:14.481Z,100032.81
2022-12-08T12:10:05.740Z,100033.69
2022-12-08T12:12:50.678Z,100022.44
2022-12-08T12:15:38.907Z,100035.41
2022-12-08T12:18:17.223Z,100026.75
2022-12-08T12:21:07.640Z,100026.78
2022-12-08T12:23:44.786Z,100023.31
2022-12-08T12:26:52.708Z,100020.72
2022-12-08T12:29:23.734Z,100025.91
2022-12-08T12:31:55.160Z,100015.56
2022-12-08T12:34:26.890Z,100017.25
2022-12-08T12:37:03.574Z,100016.41
2022-12-08T12:39:32.172Z,100013.81
2022-12-08T12:42:00.938Z,100013.81
2022-12-08T12:44:33.380Z,100008.63
2022-12-08T12:47:02.066Z,100005.19
2022-12-08T12:49:40.971Z,100008.63
2022-12-08T12:52:10.167Z,100005.16
2022-12-08T12:54:36.634Z,100010.34
2022-12-08T12:57:09.274Z,100002.59
2022-12-08T12:59:55.205Z,100007.78
2022-12-08T13:02:46.070Z,100007.78
2022-12-08T13:05:33.179Z,100007.78
2022-12-08T13:08:18.289Z,100004.31
2022-12-08T13:11:00.045Z,100003.44
2022-12-08T13:13:27.469Z,100003.44
2022-12-08T13:16:07.584Z,100003.44
2022-12-08T13:18:46.408Z,99995.69
2022-12-08T13:21:19.187Z,99991.38
2022-12-08T13:23:49.256Z,99999.97
2022-12-08T13:26:20.406Z,99993.94
2022-12-08T13:28:59.583Z,99999.13
2022-12-08T13:31:38.319Z,99999.13
2022-12-08T13:34:06.584Z,99994.81
2022-12-08T13:36:38.163Z,100001.69
2022-12-08T13:39:06.101Z,99993.94
2022-12-08T13:41:47.371Z,99989.63
2022-12-08T13:47:33.904Z,99990.47
2022-12-08T13:59:30.552Z,99978.41
2022-12-08T14:02:19.861Z,99977.56
2022-12-08T14:05:16.901Z,99974.97
2022-12-08T14:07:34.293Z,99976.69
2022-12-08T14:10:03.591Z,99981.00
2022-12-08T14:12:31.442Z,99973.22
2022-12-08T14:15:05.089Z,99971.53
2022-12-08T14:17:33.271Z,99968.06
2022-12-08T14:20:11.895Z,99979.28
2022-12-08T14:22:40.733Z,99976.69
2022-12-08T14:25:13.917Z,99977.56
2022-12-08T14:27:40.804Z,99978.41
2022-12-08T14:30:14.943Z,99978.41
2022-12-08T14:32:49.227Z,99982.75
2022-12-08T14:35:36.658Z,99980.16
2022-12-08T14:38:13.631Z,99981.00
2022-12-08T14:40:42.653Z,99981.88
2022-12-08T14:43:09.119Z,99983.59
2022-12-08T14:45:41.514Z,99976.69
2022-12-08T14:48:38.885Z,99991.34
2022-12-08T14:51:23.715Z,99978.41
2022-12-08T14:53:55.275Z,99993.09
2022-12-08T14:56:31.094Z,99987.91
2022-12-08T14:59:03.676Z,99989.66
2022-12-08T15:01:30.690Z,99987.09
2022-12-08T15:04:07.720Z,99983.63
2022-12-08T15:06:34.702Z,99982.75
2022-12-08T15:09:16.926Z,99985.34
2022-12-08T15:11:43.551Z,99983.63
2022-12-08T15:14:32.450Z,99988.81
2022-12-08T15:16:59.189Z,99992.28
2022-12-08T15:19:34.020Z,99980.19
2022-12-08T15:22:20.741Z,99987.09
2022-12-08T15:24:47.276Z,99991.41
2022-12-08T15:27:19.480Z,99987.09
2022-12-08T15:29:49.450Z,99989.69
2022-12-08T15:32:21.730Z,99988.84
2022-12-08T15:34:48.789Z,99987.97
2022-12-08T15:37:26.415Z,99981.91
2022-12-08T15:39:53.204Z,99983.66
2022-12-08T15:42:19.889Z,99981.06
2022-12-08T15:44:46.500Z,99988.81
2022-12-08T15:47:18.049Z,99992.28
2022-12-08T15:49:47.369Z,99987.09
2022-12-08T15:52:16.365Z,99982.78
2022-12-08T15:54:42.873Z,99992.28
2022-12-08T16:00:50.453Z,99990.56
2022-12-08T16:03:49.438Z,99983.66
2022-12-08T16:06:57.447Z,99989.69
2022-12-08T16:09:10.834Z,99981.94
2022-12-08T16:12:06.478Z,99979.34
2022-12-08T16:15:39.759Z,99987.09
2022-12-08T16:17:21.017Z,99981.09
2022-12-08T16:19:47.610Z,99992.28
2022-12-08T16:25:18.286Z,99989.72
2022-12-08T16:28:17.544Z,99988.00
2022-12-08T16:30:33.675Z,99990.59
2022-12-08T16:33:00.138Z,99988.84
2022-12-08T16:35:26.582Z,99985.38
2022-12-08T16:37:53.057Z,99979.38
2022-12-08T16:40:19.783Z,99986.25
2022-12-08T16:42:48.409Z,99980.22
2022-12-08T16:45:20.980Z,99977.63
2022-12-08T16:47:49.155Z,99986.25
2022-12-08T16:50:23.061Z,99983.66
2022-12-08T16:52:55.353Z,99977.63
2022-12-08T16:55:22.051Z,99980.22
2022-12-08T16:57:48.535Z,99982.81
2022-12-08T17:00:18.370Z,99987.97
2022-12-08T17:02:45.266Z,99983.66
2022-12-08T17:05:16.942Z,99979.38
2022-12-08T17:07:45.009Z,99982.81
2022-12-08T17:10:14.478Z,99984.53
2022-12-08T17:12:41.370Z,99987.13
2022-12-08T17:15:11.792Z,99982.81
2022-12-08T17:17:39.456Z,99983.69
2022-12-08T17:20:18.380Z,99981.09
2022-12-08T17:22:45.438Z,99983.69
2022-12-08T17:25:12.129Z,99980.25
2022-12-08T17:27:39.669Z,99988.88
2022-12-08T17:30:08.274Z,99985.41
2022-12-08T17:32:35.043Z,99980.25
2022-12-08T17:35:01.697Z,99982.84
2022-12-08T17:37:28.199Z,99990.59
2022-12-08T17:39:54.744Z,99995.78
2022-12-08T17:42:25.811Z,99996.63
2022-12-08T17:44:53.019Z,99992.34
2022-12-08T17:47:19.528Z,99997.50
2022-12-08T17:49:46.026Z,99996.66
2022-12-08T17:52:12.646Z,99990.59
2022-12-08T17:54:39.191Z,99987.13
2022-12-08T17:57:05.831Z,99985.44
2022-12-08T17:59:32.436Z,99990.59
2022-12-08T18:01:59.737Z,99988.88
2022-12-08T18:04:27.737Z,99983.69
2022-12-08T18:06:54.894Z,99983.72
2022-12-08T18:09:21.540Z,99974.19
2022-12-08T18:11:48.033Z,99980.25
2022-12-08T18:14:15.460Z,99977.66
2022-12-08T18:16:44.846Z,99980.25
2022-12-08T18:19:12.906Z,99985.44
2022-12-08T18:21:40.557Z,99986.28
2022-12-08T18:24:08.858Z,99983.69
2022-12-08T18:26:35.693Z,99979.41
2022-12-08T18:29:02.197Z,99985.44
2022-12-08T18:31:28.864Z,99981.13
2022-12-08T18:33:55.484Z,99977.69
2022-12-08T18:36:24.311Z,99984.59
2022-12-08T18:38:51.683Z,99988.00
2022-12-08T18:41:21.227Z,99980.25
2022-12-08T18:43:47.635Z,99990.59
2022-12-08T18:46:14.822Z,99990.59
2022-12-08T18:48:47.263Z,99994.91
2022-12-08T18:51:22.036Z,99998.38
2022-12-08T18:53:49.487Z,99986.31
2022-12-08T18:56:28.801Z,99986.31
2022-12-08T18:59:02.560Z,99986.31
2022-12-08T19:01:31.333Z,99978.56
2022-12-08T19:04:26.787Z,99982.00
2022-12-08T19:06:46.005Z,99974.25
2022-12-08T19:09:12.912Z,99981.13
2022-12-08T19:11:39.878Z,99980.28
2022-12-08T19:14:07.383Z,99977.69
2022-12-08T19:16:33.990Z,99988.03
2022-12-08T19:19:01.023Z,99979.44
2022-12-08T19:21:27.712Z,99981.16
2022-12-08T19:23:55.925Z,99980.28
2022-12-08T19:26:22.456Z,99981.16
2022-12-08T19:28:48.966Z,99986.34
2022-12-08T19:31:15.581Z,99984.59
2022-12-08T19:33:42.206Z,99988.94
2022-12-08T19:36:13.554Z,99989.78
2022-12-08T19:38:59.178Z,99994.09
2022-12-08T19:41:44.341Z,99991.50
2022-12-08T19:44:19.408Z,99994.94
2022-12-08T19:46:45.980Z,99994.97
2022-12-08T19:49:12.536Z,99986.34
2022-12-08T19:51:39.021Z,99987.22
2022-12-08T19:54:05.548Z,99994.97
2022-12-08T19:56:33.276Z,99992.38
2022-12-08T19:58:59.809Z,99997.53
2022-12-08T20:01:26.260Z,99992.34
2022-12-08T20:03:52.835Z,99999.25
2022-12-08T20:06:19.443Z,99994.09
2022-12-08T20:08:50.422Z,99994.13
2022-12-08T20:11:17.321Z,99996.69
2022-12-08T20:13:47.791Z,99996.69
2022-12-08T20:16:15.602Z,99998.41
2022-12-08T20:18:43.585Z,99990.66
2022-12-08T20:21:11.427Z,99991.50
2022-12-08T20:23:38.155Z,100001.84
2022-12-08T20:26:06.968Z,100001.88
2022-12-08T20:28:37.029Z,99994.13
2022-12-08T20:31:03.705Z,99998.41
2022-12-08T20:33:30.597Z,100001.00
2022-12-08T20:36:05.673Z,100001.00
2022-12-08T20:38:32.117Z,99997.53
2022-12-08T20:40:59.389Z,100007.00
2022-12-08T20:43:26.472Z,100007.03
2022-12-08T20:45:52.993Z,100011.34
2022-12-08T20:48:19.623Z,100010.47
2022-12-08T20:50:46.179Z,100010.47
2022-12-08T20:53:12.667Z,100002.72
2022-12-08T20:55:41.929Z,100013.91
2022-12-08T20:58:08.763Z,100015.63
2022-12-08T21:00:35.260Z,100013.06
2022-12-08T21:03:01.843Z,100008.75
2022-12-08T21:05:28.665Z,100011.34
2022-12-08T21:07:55.423Z,100019.06
2022-12-08T21:10:22.201Z,100016.50
2022-12-08T21:12:48.808Z,100014.78
2022-12-08T21:15:15.278Z,100008.75
2022-12-08T21:17:41.998Z,100005.31
2022-12-08T21:20:09.073Z,100006.16
2022-12-08T21:22:35.906Z,100003.56
2022-12-08T21:25:12.710Z,100000.13
2022-12-08T21:27:39.738Z,100003.59
2022-12-08T21:30:08.324Z,100009.59
2022-12-08T21:32:35.264Z,100004.44
2022-12-08T21:35:01.927Z,100011.31
2022-12-08T21:37:28.640Z,100014.81
2022-12-08T21:39:55.335Z,100015.66
2022-12-08T21:42:40.622Z,100019.97
2022-12-08T21:45:07.754Z,100010.47
2022-12-08T21:47:34.311Z,100007.03
2022-12-08T21:50:01.030Z,100009.63
2022-12-08T21:52:27.862Z,100009.63
2022-12-08T21:54:54.537Z,100000.97
2022-12-08T21:57:21.007Z,100001.88
2022-12-08T21:59:47.498Z,100017.34
2022-12-08T22:02:19.572Z,100004.44
2022-12-08T22:04:49.867Z,99998.41
2022-12-08T22:07:16.716Z,100002.69
2022-12-08T22:09:43.320Z,100003.59
2022-12-08T22:12:11.861Z,100006.19
2022-12-08T22:14:39.913Z,100007.03
2022-12-08T22:17:07.245Z,100008.72
2022-12-08T22:19:34.017Z,100006.19
2022-12-08T22:22:00.722Z,100004.44
2022-12-08T22:24:29.845Z,100004.44
2022-12-08T22:26:56.398Z,100013.91
2022-12-08T22:29:22.953Z,100007.03
2022-12-08T22:31:49.434Z,100006.16
2022-12-08T22:34:16.189Z,100004.44
2022-12-08T22:36:42.847Z,100008.75
2022-12-08T22:39:09.834Z,100007.88
2022-12-08T22:41:36.655Z,100006.16
2022-12-08T22:44:06.127Z,100006.16
2022-12-08T22:46:32.709Z,100004.44
2022-12-08T22:48:59.343Z,100007.03
2022-12-08T22:51:25.797Z,100006.19
2022-12-08T22:53:52.314Z,100008.75
2022-12-08T22:56:19.226Z,100006.19
2022-12-08T22:58:46.029Z,99997.53
2022-12-08T23:01:30.688Z,100001.00
2022-12-08T23:03:58.660Z,99994.09
2022-12-08T23:06:26.198Z,99997.53
2022-12-08T23:08:55.535Z,99998.44
2022-12-08T23:11:24.053Z,100000.16
2022-12-08T23:13:50.442Z,100001.84
2022-12-08T23:16:17.004Z,99989.78
2022-12-08T23:18:45.188Z,100003.56
2022-12-08T23:21:14.397Z,100005.31
2022-12-08T23:23:41.091Z,100006.16
2022-12-08T23:26:23.361Z,100003.59
2022-12-08T23:28:50.552Z,99996.69
2022-12-08T23:31:18.277Z,99998.41
2022-12-08T23:33:45.024Z,99994.09
2022-12-08T23:36:13.461Z,99994.09
2022-12-08T23:38:40.307Z,99991.50
2022-12-08T23:41:08.728Z,99997.56
2022-12-08T23:43:35.896Z,99994.97
2022-12-08T23:46:03.120Z,99993.22
2022-12-08T23:48:30.129Z,99992.38
2022-12-08T23:50:59.428Z,99985.47
2022-12-08T23:53:28.374Z,99982.91
2022-12-08T23:56:02.900Z,99988.06
2022-12-08T23:58:33.306Z,99988.94
